Time;durP1;ratioP1;P1;durP2;ratioP2;P2;SDS_P1;SDS_P2;PMS_P1;PMS_P2;Temp;Humidity;BMP_temperature;BMP_pressure;BME280_temperature;BME280_humidity;BME280_pressure;Samples;Min_cycle;Max_cycle;Signal;HPM_P1;HPM_P2
2021/10/01 00:00:30;;;;;;;10.30;3.47;;;12.60;99.90;;;;;;5088113;28;20048;-47
2021/10/01 00:02:56;;;;;;;8.13;2.20;;;12.70;99.90;;;;;;5088728;28;20059;-48
2021/10/01 00:05:26;;;;;;;9.25;2.70;;;12.60;99.90;;;;;;5087804;28;20464;-46
2021/10/01 00:07:57;;;;;;;11.30;2.97;;;12.60;99.90;;;;;;5087428;28;20416;-49
2021/10/01 00:10:26;;;;;;;7.32;2.10;;;12.60;99.90;;;;;;5068644;28;20071;-48
2021/10/01 00:12:54;;;;;;;5.70;2.17;;;12.70;99.90;;;;;;5070481;28;20503;-47
2021/10/01 00:15:20;;;;;;;6.95;2.40;;;12.60;99.90;;;;;;5086959;28;20063;-50
2021/10/01 00:17:49;;;;;;;7.97;2.10;;;12.60;99.90;;;;;;5073600;28;20080;-47
2021/10/01 00:20:20;;;;;;;6.57;1.80;;;12.60;99.90;;;;;;5088935;28;20044;-47
2021/10/01 00:22:46;;;;;;;7.90;2.33;;;12.60;99.90;;;;;;5087363;28;20044;-48
2021/10/01 00:25:18;;;;;;;8.93;2.10;;;12.60;99.90;;;;;;5088887;28;20051;-48
2021/10/01 00:27:47;;;;;;;7.65;2.13;;;12.60;99.90;;;;;;5070777;28;20048;-50
2021/10/01 00:30:16;;;;;;;6.30;1.85;;;12.60;99.90;;;;;;5088517;28;20133;-46
2021/10/01 00:32:44;;;;;;;4.45;1.52;;;12.50;99.90;;;;;;5088804;28;20125;-47
2021/10/01 00:35:10;;;;;;;6.72;2.17;;;12.50;99.90;;;;;;5086790;28;20052;-48
2021/10/01 00:37:38;;;;;;;6.20;2.13;;;12.40;99.90;;;;;;5086132;28;20056;-47
2021/10/01 00:40:10;;;;;;;8.73;2.13;;;12.30;99.90;;;;;;5088378;28;20066;-48
2021/10/01 00:42:39;;;;;;;6.55;2.17;;;12.20;99.90;;;;;;5086477;28;20074;-49
2021/10/01 00:45:06;;;;;;;7.78;2.78;;;12.20;99.90;;;;;;5088554;28;20048;-47
2021/10/01 00:47:37;;;;;;;8.50;2.08;;;12.10;99.90;;;;;;5088563;28;20070;-47
2021/10/01 00:50:03;;;;;;;8.63;1.80;;;12.10;99.90;;;;;;5087192;28;20060;-48
2021/10/01 00:52:32;;;;;;;4.88;1.92;;;12.10;99.90;;;;;;5086821;28;20129;-47
2021/10/01 00:54:59;;;;;;;7.32;2.10;;;12.10;99.90;;;;;;5088851;28;20056;-46
2021/10/01 00:57:25;;;;;;;4.88;2.00;;;12.10;99.90;;;;;;5087613;28;20133;-47
2021/10/01 00:59:51;;;;;;;9.82;2.40;;;12.10;99.90;;;;;;5087610;28;20044;-46
2021/10/01 01:02:18;;;;;;;7.78;2.20;;;12.10;99.90;;;;;;5088304;28;20052;-49
2021/10/01 01:04:45;;;;;;;9.40;1.90;;;12.10;99.90;;;;;;5086242;28;20650;-47
2021/10/01 01:07:32;;;;;;;7.75;1.95;;;12.10;99.90;;;;;;5103840;28;20504;-46
2021/10/01 01:10:10;;;;;;;6.13;2.15;;;12.10;99.90;;;;;;5086680;28;20052;-50
2021/10/01 01:12:50;;;;;;;5.97;1.95;;;12.10;99.90;;;;;;5086112;28;20126;-49
2021/10/01 01:15:25;;;;;;;6.15;1.92;;;12.10;99.90;;;;;;5086755;28;20048;-47
2021/10/01 01:18:08;;;;;;;3.78;1.60;;;12.20;99.90;;;;;;5089073;28;20063;-50
2021/10/01 01:20:48;;;;;;;8.90;2.13;;;12.20;99.90;;;;;;5087990;28;20052;-49
2021/10/01 01:23:35;;;;;;;5.65;1.90;;;12.20;99.90;;;;;;5086073;28;20055;-49
2021/10/01 01:26:27;;;;;;;7.97;2.10;;;12.20;99.90;;;;;;5069961;28;20048;-45
2021/10/01 01:29:32;;;;;;;6.95;1.75;;;12.20;99.90;;;;;;5070584;28;20097;-48
2021/10/01 01:32:19;;;;;;;6.45;1.92;;;12.20;99.90;;;;;;5069365;28;20056;-47
2021/10/01 01:35:06;;;;;;;8.32;2.10;;;12.20;99.90;;;;;;5086531;28;20056;-49
2021/10/01 01:37:54;;;;;;;7.13;1.67;;;12.10;99.90;;;;;;5086952;28;20062;-48
2021/10/01 01:40:25;;;;;;;7.40;2.05;;;12.20;99.90;;;;;;5066252;28;20143;-50
2021/10/01 01:42:58;;;;;;;5.00;1.70;;;12.10;99.90;;;;;;5073586;28;20054;-50
2021/10/01 01:45:27;;;;;;;5.10;1.80;;;12.20;99.90;;;;;;5088109;28;20060;-50
2021/10/01 01:47:57;;;;;;;4.57;1.70;;;12.10;99.90;;;;;;5087071;28;20060;-49
2021/10/01 01:50:26;;;;;;;5.20;1.90;;;12.20;99.90;;;;;;5089425;28;20056;-48
2021/10/01 01:52:59;;;;;;;6.72;1.90;;;12.10;99.90;;;;;;5090017;28;20723;-50
2021/10/01 01:55:25;;;;;;;7.70;2.53;;;12.20;99.90;;;;;;5075667;28;20052;-50
2021/10/01 01:57:53;;;;;;;7.03;1.98;;;12.20;99.90;;;;;;5089856;28;20048;-49
2021/10/01 02:00:46;;;;;;;5.18;1.92;;;12.20;99.90;;;;;;5089618;28;20475;-50
2021/10/01 02:03:19;;;;;;;6.03;2.03;;;12.30;99.90;;;;;;5089450;28;20052;-49
2021/10/01 02:05:58;;;;;;;6.07;1.60;;;12.20;99.90;;;;;;5072329;28;20778;-50
2021/10/01 02:08:25;;;;;;;6.07;1.85;;;12.30;99.90;;;;;;5091257;28;20093;-48
2021/10/01 02:10:53;;;;;;;7.00;2.13;;;12.30;99.90;;;;;;5090471;28;20056;-51
2021/10/01 02:13:22;;;;;;;5.32;1.42;;;12.30;99.90;;;;;;5091588;28;20059;-47
2021/10/01 02:15:59;;;;;;;5.25;1.52;;;12.30;99.90;;;;;;5090708;28;20056;-50
2021/10/01 02:18:28;;;;;;;7.55;2.05;;;12.30;99.90;;;;;;5091728;28;20059;-47
2021/10/01 02:20:56;;;;;;;7.60;1.70;;;12.30;99.90;;;;;;5090999;28;20048;-48
2021/10/01 02:23:23;;;;;;;5.38;1.83;;;12.40;99.90;;;;;;5087379;28;20082;-48
2021/10/01 02:28:47;;;;;;;6.78;1.77;;;12.40;99.90;;;;;;5105106;28;20121;-50
2021/10/01 02:31:29;;;;;;;5.97;1.80;;;12.30;99.90;;;;;;5092357;28;20492;-47
2021/10/01 02:34:02;;;;;;;6.05;1.75;;;12.30;99.90;;;;;;5089205;28;20130;-49
2021/10/01 02:36:29;;;;;;;6.30;1.90;;;12.30;99.90;;;;;;5076916;28;20052;-49
2021/10/01 02:39:00;;;;;;;4.15;1.48;;;12.40;99.90;;;;;;5087941;28;20048;-49
2021/10/01 02:41:28;;;;;;;5.85;1.85;;;12.40;99.90;;;;;;5071715;28;20759;-50
2021/10/01 02:43:55;;;;;;;7.32;1.73;;;12.40;99.90;;;;;;5090188;28;20781;-48
2021/10/01 02:46:24;;;;;;;5.32;1.50;;;12.40;99.90;;;;;;5088799;28;20056;-49
2021/10/01 02:48:53;;;;;;;6.53;2.17;;;12.40;99.90;;;;;;5088170;28;20059;-47
2021/10/01 02:51:23;;;;;;;10.85;2.03;;;12.40;99.90;;;;;;5078472;28;20071;-49
2021/10/01 02:53:56;;;;;;;5.88;1.88;;;12.40;99.90;;;;;;5071355;28;20504;-48
2021/10/01 02:56:37;;;;;;;7.72;1.67;;;12.40;99.90;;;;;;5071234;28;20056;-48
2021/10/01 02:59:05;;;;;;;7.18;2.30;;;12.40;99.90;;;;;;5087836;28;20060;-47
2021/10/01 03:01:32;;;;;;;6.15;1.80;;;12.30;99.90;;;;;;5088406;28;20048;-50
2021/10/01 03:04:06;;;;;;;5.05;1.95;;;12.40;99.90;;;;;;5067389;28;20047;-48
2021/10/01 03:06:39;;;;;;;10.50;1.90;;;12.40;99.90;;;;;;5103661;28;20075;-50
2021/10/01 03:09:07;;;;;;;10.40;1.67;;;12.40;99.90;;;;;;5089773;28;20131;-49
2021/10/01 03:11:38;;;;;;;6.47;1.80;;;12.30;99.90;;;;;;5088241;28;20774;-48
2021/10/01 03:14:07;;;;;;;5.80;2.25;;;12.30;99.90;;;;;;5087685;28;20055;-47
2021/10/01 03:16:35;;;;;;;5.13;1.80;;;12.30;99.90;;;;;;5053881;28;20056;-48
2021/10/01 03:19:05;;;;;;;4.35;1.60;;;12.20;99.90;;;;;;5088658;28;20510;-49
2021/10/01 03:21:33;;;;;;;6.75;1.67;;;12.20;99.90;;;;;;5088306;28;20071;-51
2021/10/01 03:24:00;;;;;;;3.60;1.50;;;12.20;99.90;;;;;;5088826;28;20483;-48
2021/10/01 03:26:29;;;;;;;9.15;1.77;;;12.20;99.90;;;;;;5087749;28;20055;-48
2021/10/01 03:28:57;;;;;;;5.63;1.58;;;12.20;99.90;;;;;;5080030;28;20044;-48
2021/10/01 03:31:25;;;;;;;5.55;1.52;;;12.20;99.90;;;;;;5087849;28;20527;-50
2021/10/01 03:33:55;;;;;;;6.78;1.73;;;12.20;99.90;;;;;;5088505;28;20044;-50
2021/10/01 03:36:23;;;;;;;4.32;1.33;;;12.20;99.90;;;;;;5087684;28;20079;-48
2021/10/01 03:38:56;;;;;;;5.93;1.55;;;12.10;99.90;;;;;;5078775;28;20037;-51
2021/10/01 03:41:25;;;;;;;5.95;2.05;;;12.10;99.90;;;;;;5087996;28;20051;-48
2021/10/01 03:43:54;;;;;;;5.15;1.65;;;12.00;99.90;;;;;;5088270;28;20047;-48
2021/10/01 03:46:21;;;;;;;9.07;2.47;;;12.10;99.90;;;;;;5071650;28;20052;-49
2021/10/01 03:48:47;;;;;;;14.45;2.17;;;12.00;99.90;;;;;;5090104;28;20051;-49
2021/10/01 03:51:16;;;;;;;3.83;1.17;;;12.00;99.90;;;;;;5105489;28;20463;-48
2021/10/01 03:53:42;;;;;;;6.47;1.85;;;12.00;99.90;;;;;;5088345;28;20798;-49
2021/10/01 03:56:18;;;;;;;5.63;1.25;;;12.10;99.90;;;;;;5104206;28;20059;-47
2021/10/01 03:58:47;;;;;;;5.85;1.70;;;12.10;99.90;;;;;;5071608;28;20097;-48
2021/10/01 04:01:17;;;;;;;6.80;1.70;;;12.00;99.90;;;;;;5082019;28;20440;-50
2021/10/01 04:03:43;;;;;;;6.55;1.88;;;12.10;99.90;;;;;;5078795;28;20063;-49
2021/10/01 04:06:10;;;;;;;6.65;2.45;;;12.10;99.90;;;;;;5087992;28;20056;-48
2021/10/01 04:08:36;;;;;;;6.63;1.30;;;12.10;99.90;;;;;;5087198;28;20130;-47
2021/10/01 04:11:02;;;;;;;4.43;1.50;;;12.10;99.90;;;;;;5086753;28;20138;-48
2021/10/01 04:13:31;;;;;;;8.73;1.33;;;12.10;99.90;;;;;;5086703;28;20155;-47
2021/10/01 04:16:00;;;;;;;5.15;1.70;;;12.10;99.90;;;;;;5088090;28;20130;-48
2021/10/01 04:18:27;;;;;;;6.88;1.70;;;12.10;99.90;;;;;;5085829;28;20130;-50
2021/10/01 04:20:56;;;;;;;6.07;1.40;;;12.10;99.90;;;;;;5051013;28;20048;-49
2021/10/01 04:23:24;;;;;;;4.43;1.30;;;12.10;99.90;;;;;;5068159;28;20044;-48
2021/10/01 04:25:50;;;;;;;6.55;1.67;;;12.10;99.90;;;;;;5088434;28;20500;-49
2021/10/01 04:28:18;;;;;;;4.55;1.58;;;12.10;99.90;;;;;;5085751;28;20055;-48
2021/10/01 04:30:49;;;;;;;6.05;1.90;;;12.00;99.90;;;;;;5087757;28;20047;-48
2021/10/01 04:33:24;;;;;;;5.50;1.48;;;12.00;99.90;;;;;;5088385;28;20068;-51
2021/10/01 04:35:54;;;;;;;7.05;2.03;;;11.90;99.90;;;;;;5086820;28;20071;-52
2021/10/01 04:38:23;;;;;;;5.28;1.38;;;11.90;99.90;;;;;;5101850;28;20138;-49
2021/10/01 04:40:55;;;;;;;6.10;1.83;;;11.90;99.90;;;;;;5086761;28;20052;-47
2021/10/01 04:43:22;;;;;;;5.45;1.73;;;11.80;99.90;;;;;;5085492;28;20049;-47
2021/10/01 04:46:23;;;;;;;7.28;2.13;;;11.80;99.90;;;;;;5052736;28;20141;-48
2021/10/01 04:48:55;;;;;;;5.05;1.52;;;11.70;99.90;;;;;;4994359;28;20796;-49
2021/10/01 04:51:26;;;;;;;6.72;1.55;;;11.70;99.90;;;;;;5025659;28;20760;-50
2021/10/01 04:53:52;;;;;;;6.65;1.50;;;11.60;99.90;;;;;;5007642;28;20099;-48
2021/10/01 04:56:21;;;;;;;5.25;1.60;;;11.60;99.90;;;;;;5031095;28;20053;-48
2021/10/01 04:58:51;;;;;;;8.05;1.80;;;11.60;99.90;;;;;;5025030;28;20128;-48
2021/10/01 05:01:42;;;;;;;5.20;1.75;;;11.50;99.90;;;;;;5024691;28;20057;-49
2021/10/01 05:04:15;;;;;;;5.80;1.67;;;11.40;99.90;;;;;;5009003;28;20073;-48
2021/10/01 05:06:43;;;;;;;6.68;2.33;;;11.40;99.90;;;;;;5034176;28;20059;-49
2021/10/01 05:09:24;;;;;;;4.03;1.63;;;11.40;99.90;;;;;;5044109;28;20049;-47
2021/10/01 05:12:11;;;;;;;6.85;1.70;;;11.30;99.90;;;;;;5044144;28;20061;-50
2021/10/01 05:14:58;;;;;;;11.23;2.47;;;11.40;99.90;;;;;;5026661;28;20434;-50
2021/10/01 05:17:44;;;;;;;3.72;1.50;;;11.30;99.90;;;;;;5040331;28;20053;-50
2021/10/01 05:20:28;;;;;;;5.70;1.73;;;11.40;99.90;;;;;;5043725;28;20049;-49
2021/10/01 05:23:06;;;;;;;6.22;1.70;;;11.40;99.90;;;;;;5082634;28;20064;-49
2021/10/01 05:25:33;;;;;;;5.10;2.15;;;11.40;99.90;;;;;;5072131;28;20063;-49
2021/10/01 05:28:01;;;;;;;6.60;2.13;;;11.40;99.90;;;;;;5088917;28;20438;-49
2021/10/01 05:30:28;;;;;;;7.70;2.25;;;11.40;99.90;;;;;;5091072;28;20131;-48
2021/10/01 05:32:54;;;;;;;7.75;2.10;;;11.40;99.90;;;;;;5090075;28;20101;-50
2021/10/01 05:35:24;;;;;;;7.38;1.98;;;11.40;99.90;;;;;;5091199;28;20062;-50
2021/10/01 05:37:52;;;;;;;4.90;1.55;;;11.50;99.90;;;;;;5089533;28;20051;-49
2021/10/01 05:40:21;;;;;;;5.18;2.00;;;11.40;99.90;;;;;;5084936;28;20060;-50
2021/10/01 05:42:50;;;;;;;5.50;1.88;;;11.40;99.90;;;;;;5090032;28;20062;-47
2021/10/01 05:45:16;;;;;;;11.05;2.25;;;11.40;99.90;;;;;;5089336;28;20070;-47
2021/10/01 05:48:02;;;;;;;6.28;1.58;;;11.40;99.90;;;;;;5091118;28;20047;-48
2021/10/01 05:50:53;;;;;;;4.18;1.67;;;11.50;99.90;;;;;;5089895;28;20056;-49
2021/10/01 05:56:54;;;;;;;7.93;2.13;;;11.50;99.90;;;;;;5063553;28;20799;-50
2021/10/01 05:59:26;;;;;;;5.82;1.80;;;11.50;99.90;;;;;;5043780;28;20044;-47
2021/10/01 06:01:52;;;;;;;6.25;1.67;;;11.60;99.90;;;;;;5047836;28;20098;-48
2021/10/01 06:04:22;;;;;;;4.32;1.52;;;11.70;99.90;;;;;;5068412;28;20049;-51
2021/10/01 06:06:48;;;;;;;8.95;4.68;;;11.70;99.90;;;;;;5034262;28;20059;-51
2021/10/01 06:09:18;;;;;;;30.17;23.02;;;11.70;99.90;;;;;;5068257;28;20056;-47
2021/10/01 06:11:45;;;;;;;12.63;5.63;;;11.80;99.90;;;;;;5068181;28;20501;-49
2021/10/01 06:14:19;;;;;;;36.88;26.80;;;11.80;99.90;;;;;;5040206;28;20052;-48
2021/10/01 06:16:49;;;;;;;29.20;23.63;;;11.80;99.90;;;;;;5064348;28;20047;-48
2021/10/01 06:19:19;;;;;;;9.20;3.55;;;11.90;99.90;;;;;;5049425;28;20070;-51
2021/10/01 06:21:48;;;;;;;4.85;2.17;;;11.80;99.90;;;;;;5066277;28;20056;-55
2021/10/01 06:24:17;;;;;;;57.40;48.80;;;11.90;99.90;;;;;;5066343;28;20040;-52
2021/10/01 06:26:47;;;;;;;52.05;40.80;;;11.90;99.90;;;;;;5068338;28;20056;-50
2021/10/01 06:29:15;;;;;;;8.65;2.35;;;11.90;99.90;;;;;;5086953;28;20082;-51
2021/10/01 06:31:43;;;;;;;40.78;32.15;;;12.00;99.90;;;;;;5088342;28;20230;-49
2021/10/01 06:34:12;;;;;;;14.40;10.60;;;12.00;99.90;;;;;;5089538;28;20455;-49
2021/10/01 06:36:39;;;;;;;6.60;2.35;;;12.10;99.90;;;;;;5085739;28;20090;-49
2021/10/01 06:39:06;;;;;;;8.07;3.45;;;12.10;99.90;;;;;;5087312;28;20098;-51
2021/10/01 06:41:36;;;;;;;5.88;1.95;;;12.10;99.90;;;;;;5087060;28;20082;-49
2021/10/01 06:44:06;;;;;;;18.42;12.73;;;12.20;99.90;;;;;;5087249;28;20113;-48
2021/10/01 06:51:50;;;;;;;15.75;8.90;;;12.30;99.90;;;;;;5081960;28;20048;-49
2021/10/01 08:19:39;;;;;;;16.48;13.05;;;16.40;99.90;;;;;;5089114;28;20055;-52
2021/10/01 08:22:05;;;;;;;6.22;3.17;;;16.50;99.90;;;;;;5088319;28;20052;-51
2021/10/01 08:24:32;;;;;;;6.28;3.08;;;16.70;99.90;;;;;;5086101;28;20127;-48
2021/10/01 08:27:06;;;;;;;7.70;2.10;;;17.00;99.90;;;;;;5082183;28;20048;-49
2021/10/01 08:29:36;;;;;;;10.57;1.60;;;17.30;99.90;;;;;;5083073;28;20047;-49
2021/10/01 08:32:06;;;;;;;5.93;1.33;;;17.40;99.90;;;;;;5086117;28;20040;-49
2021/10/01 08:34:38;;;;;;;4.35;1.10;;;17.30;99.90;;;;;;5083487;28;20063;-51
2021/10/01 08:37:09;;;;;;;6.07;1.65;;;16.60;99.90;;;;;;5082198;28;20117;-54
2021/10/01 08:39:41;;;;;;;4.25;1.20;;;16.30;99.90;;;;;;5084498;28;20052;-53
2021/10/01 08:42:15;;;;;;;7.88;1.27;;;16.10;99.90;;;;;;5079972;28;20491;-49
2021/10/01 08:44:43;;;;;;;6.57;1.85;;;15.80;99.90;;;;;;5083811;28;20060;-50
2021/10/01 08:47:13;;;;;;;5.05;1.30;;;15.70;99.90;;;;;;5086044;28;20091;-56
2021/10/01 08:49:50;;;;;;;7.90;3.80;;;15.50;99.90;;;;;;5086476;28;20188;-49
2021/10/01 08:52:21;;;;;;;13.65;8.52;;;15.40;99.90;;;;;;5084082;28;20056;-49
2021/10/01 08:54:50;;;;;;;24.10;16.83;;;15.30;99.90;;;;;;5083153;28;20496;-52
2021/10/01 08:57:17;;;;;;;8.15;2.42;;;15.10;99.90;;;;;;5084187;28;20051;-51
2021/10/01 08:59:43;;;;;;;8.88;2.10;;;15.10;99.90;;;;;;5083397;28;20073;-47
2021/10/01 09:02:12;;;;;;;9.20;4.50;;;15.10;99.90;;;;;;5083799;28;20083;-51
2021/10/01 09:04:41;;;;;;;6.32;2.05;;;15.10;99.90;;;;;;5086194;28;20056;-53
2021/10/01 09:07:10;;;;;;;5.38;1.52;;;15.40;99.90;;;;;;5085134;28;20143;-50
2021/10/01 09:09:43;;;;;;;5.88;1.70;;;15.50;99.90;;;;;;5086244;28;20130;-53
2021/10/01 09:12:14;;;;;;;3.90;1.20;;;15.60;99.90;;;;;;5087997;28;20107;-54
2021/10/01 09:14:48;;;;;;;7.25;2.28;;;15.60;99.90;;;;;;5086872;28;20101;-53
2021/10/01 09:17:19;;;;;;;5.53;1.70;;;15.50;99.90;;;;;;5086984;28;20503;-53
2021/10/01 09:19:46;;;;;;;6.95;1.58;;;15.50;99.90;;;;;;5086558;28;20050;-53
2021/10/01 09:22:32;;;;;;;6.70;1.90;;;15.30;99.90;;;;;;5086548;28;20066;-51
2021/10/01 09:25:14;;;;;;;6.88;1.50;;;15.30;99.90;;;;;;5085636;28;20051;-46
2021/10/01 09:27:44;;;;;;;5.15;1.20;;;15.20;99.90;;;;;;5081384;28;20465;-52
2021/10/01 09:30:15;;;;;;;12.15;2.83;;;15.10;99.90;;;;;;5082933;28;20723;-53
2021/10/01 09:32:42;;;;;;;6.05;1.92;;;15.00;99.90;;;;;;5086930;28;20056;-52
2021/10/01 09:35:14;;;;;;;8.00;1.95;;;15.00;99.90;;;;;;5085467;28;20062;-47
2021/10/01 09:37:43;;;;;;;4.97;1.20;;;15.00;99.90;;;;;;5085544;28;20051;-55
2021/10/01 09:40:12;;;;;;;9.48;4.47;;;15.00;99.90;;;;;;5086295;28;20470;-53
2021/10/01 09:42:43;;;;;;;6.35;2.17;;;15.10;99.90;;;;;;5086313;28;20051;-51
2021/10/01 09:45:10;;;;;;;;;;;15.10;99.90;;;;;;5081212;28;20543;-52
2021/10/01 09:47:44;;;;;;;5.72;1.70;;;15.00;99.90;;;;;;5084426;28;19931;-54
2021/10/01 09:50:32;;;;;;;6.75;1.60;;;15.10;99.90;;;;;;5088936;28;20093;-49
2021/10/01 09:53:04;;;;;;;4.40;1.50;;;15.20;99.90;;;;;;5081773;28;20051;-53
2021/10/01 09:55:38;;;;;;;5.07;1.77;;;15.60;99.90;;;;;;5082172;28;20714;-53
2021/10/01 09:58:08;;;;;;;5.82;1.25;;;16.20;99.90;;;;;;5086854;28;20060;-53
2021/10/01 10:00:39;;;;;;;5.30;1.63;;;16.30;99.90;;;;;;5086027;28;20067;-55
2021/10/01 10:03:06;;;;;;;;;;;16.50;99.90;;;;;;5086872;28;20136;-55
2021/10/01 10:05:59;;;;;;;6.00;1.40;;;16.70;99.90;;;;;;5084350;28;19924;-53
2021/10/01 10:08:35;;;;;;;4.35;1.52;;;16.80;99.90;;;;;;5083486;28;20105;-55
2021/10/01 10:11:08;;;;;;;8.05;1.52;;;16.70;99.90;;;;;;5085753;28;20063;-54
2021/10/01 10:13:43;;;;;;;5.38;1.40;;;16.50;99.90;;;;;;5090153;28;20079;-55
2021/10/01 10:16:16;;;;;;;4.30;1.00;;;16.50;99.90;;;;;;5086647;28;20048;-50
2021/10/01 10:18:52;;;;;;;3.55;1.05;;;16.20;99.90;;;;;;5088849;28;20075;-55
2021/10/01 10:21:19;;;;;;;6.40;1.52;;;16.20;99.90;;;;;;5088033;28;20051;-56
2021/10/01 10:23:47;;;;;;;5.10;1.38;;;16.30;99.90;;;;;;5087516;28;20056;-54
2021/10/01 10:26:14;;;;;;;5.55;1.10;;;16.10;99.90;;;;;;5083858;28;20058;-52
2021/10/01 10:28:43;;;;;;;4.78;1.38;;;16.10;99.90;;;;;;5089454;28;20048;-54
2021/10/01 10:31:14;;;;;;;10.13;3.63;;;16.20;99.90;;;;;;5087176;28;20056;-50
2021/10/01 10:33:45;;;;;;;54.30;48.40;;;16.30;99.90;;;;;;5090087;28;20809;-56
2021/10/01 10:36:34;;;;;;;9.05;5.85;;;16.40;99.90;;;;;;5089939;28;20367;-52
2021/10/01 10:39:32;;;;;;;7.35;2.08;;;16.60;99.90;;;;;;5089487;28;20055;-53
2021/10/01 10:42:04;;;;;;;7.72;1.48;;;16.60;99.90;;;;;;5088522;28;20500;-52
2021/10/01 10:44:48;;;;;;;9.48;6.45;;;16.50;99.90;;;;;;5088443;28;20537;-52
2021/10/01 10:47:52;;;;;;;8.52;1.88;;;16.60;99.90;;;;;;5088923;28;20052;-52
2021/10/01 10:50:24;;;;;;;8.13;4.38;;;16.50;99.90;;;;;;5088312;28;20047;-49
2021/10/01 10:53:06;;;;;;;7.57;1.90;;;16.60;99.90;;;;;;5085331;28;20148;-52
2021/10/01 10:55:41;;;;;;;4.30;1.85;;;16.70;99.90;;;;;;5087638;28;20108;-51
2021/10/01 11:00:54;;;;;;;5.75;1.55;;;16.90;99.90;;;;;;5088869;28;20052;-49
2021/10/01 11:03:28;;;;;;;5.60;1.77;;;17.20;99.90;;;;;;5085378;28;20090;-50
2021/10/01 11:06:18;;;;;;;8.23;2.53;;;17.50;99.90;;;;;;5088819;28;20130;-50
2021/10/01 11:08:50;;;;;;;7.25;1.98;;;17.60;99.90;;;;;;5083712;28;20048;-54
2021/10/01 11:11:32;;;;;;;6.35;1.70;;;17.70;99.90;;;;;;5083133;28;20189;-51
2021/10/01 11:14:20;;;;;;;;;;;17.60;99.90;;;;;;5085300;28;20052;-49
2021/10/01 11:16:52;;;;;;;6.03;1.58;;;17.20;99.90;;;;;;5084005;28;20365;-53
2021/10/01 11:19:40;;;;;;;4.85;1.48;;;17.20;99.90;;;;;;5084765;28;20055;-53
2021/10/01 11:22:27;;;;;;;8.52;1.50;;;17.30;99.90;;;;;;5085342;28;20059;-49
2021/10/01 11:25:04;;;;;;;4.95;1.90;;;17.10;99.90;;;;;;5084608;28;20435;-53
2021/10/01 11:27:31;;;;;;;6.03;1.95;;;17.00;99.90;;;;;;5083369;28;20052;-53
2021/10/01 11:29:58;;;;;;;6.93;1.92;;;16.60;99.90;;;;;;5081922;28;20063;-54
2021/10/01 11:32:26;;;;;;;11.35;2.45;;;16.60;99.90;;;;;;5083844;28;20420;-54
2021/10/01 11:34:59;;;;;;;5.25;1.88;;;16.60;99.90;;;;;;5086461;28;20578;-52
2021/10/01 11:37:48;;;;;;;4.20;1.80;;;16.50;99.90;;;;;;5083707;28;20055;-51
2021/10/01 11:40:24;;;;;;;5.70;2.03;;;16.50;99.90;;;;;;5086732;28;20067;-49
2021/10/01 11:42:53;;;;;;;5.65;1.77;;;16.40;99.90;;;;;;5087132;28;20056;-49
2021/10/01 11:45:24;;;;;;;5.63;2.22;;;16.20;99.90;;;;;;5086362;28;20048;-50
2021/10/01 11:47:55;;;;;;;7.67;1.80;;;16.20;99.90;;;;;;5085991;28;20064;-51
2021/10/01 11:50:50;;;;;;;5.15;2.22;;;16.10;99.90;;;;;;5085959;28;20059;-51
2021/10/01 11:53:25;;;;;;;6.50;2.35;;;16.20;99.90;;;;;;5044474;28;20595;-55
2021/10/01 11:56:02;;;;;;;6.53;1.90;;;16.10;99.90;;;;;;5043179;28;20089;-48
2021/10/01 11:58:30;;;;;;;4.95;1.73;;;15.80;99.90;;;;;;5043106;28;20057;-53
2021/10/01 12:01:08;;;;;;;7.75;2.00;;;15.70;99.90;;;;;;5041471;28;20053;-51
2021/10/01 12:03:35;;;;;;;5.38;1.80;;;15.50;99.90;;;;;;5043803;28;20509;-54
2021/10/01 12:06:04;;;;;;;4.97;1.80;;;15.40;99.90;;;;;;5043536;28;20052;-53
2021/10/01 12:08:35;;;;;;;6.50;1.90;;;15.40;99.90;;;;;;5011428;28;20067;-54
2021/10/01 12:11:02;;;;;;;15.90;10.15;;;15.40;99.90;;;;;;5028431;28;20241;-52
2021/10/01 12:13:38;;;;;;;7.85;4.93;;;15.40;99.90;;;;;;5039574;28;20053;-53
2021/10/01 12:16:10;;;;;;;8.13;2.92;;;15.40;99.90;;;;;;5044416;28;20049;-53
2021/10/01 12:18:54;;;;;;;10.73;7.95;;;15.40;99.90;;;;;;5035745;28;20106;-55
2021/10/01 12:21:26;;;;;;;5.78;2.03;;;15.70;99.90;;;;;;5044735;28;20056;-56
2021/10/01 12:24:04;;;;;;;7.45;2.45;;;15.90;99.90;;;;;;5043275;28;20040;-54
2021/10/01 12:26:31;;;;;;;8.18;2.53;;;16.10;99.90;;;;;;5041755;28;20532;-55
2021/10/01 12:29:18;;;;;;;9.85;2.85;;;16.30;99.90;;;;;;5052062;28;20770;-58
2021/10/01 12:31:51;;;;;;;9.15;2.47;;;16.30;99.90;;;;;;5096506;28;20055;-57
2021/10/01 12:34:29;;;;;;;5.85;3.65;;;16.40;99.90;;;;;;5081830;28;20052;-55
2021/10/01 12:37:11;;;;;;;23.55;19.08;;;16.40;99.90;;;;;;5083987;28;20055;-57
2021/10/01 12:39:40;;;;;;;9.43;3.08;;;16.40;99.90;;;;;;5085732;28;20047;-57
2021/10/01 12:42:11;;;;;;;9.65;3.30;;;16.60;99.90;;;;;;5084752;28;20180;-58
2021/10/01 12:44:57;;;;;;;10.25;3.20;;;16.60;99.90;;;;;;5086286;28;20048;-57
2021/10/01 12:47:26;;;;;;;6.38;2.78;;;16.70;99.90;;;;;;5084122;28;20406;-57
2021/10/01 12:50:08;;;;;;;8.73;3.22;;;16.70;99.90;;;;;;5086485;28;20051;-53
2021/10/01 12:52:35;;;;;;;;;;;16.60;99.90;;;;;;5086614;28;20056;-55
2021/10/01 12:55:09;;;;;;;5.80;2.35;;;16.60;99.90;;;;;;5086704;28;19924;-54
2021/10/01 12:57:37;;;;;;;7.00;2.33;;;16.60;99.90;;;;;;5086308;28;20054;-56
2021/10/01 13:00:03;;;;;;;8.73;2.92;;;16.60;99.90;;;;;;5085110;28;20063;-56
2021/10/01 13:02:41;;;;;;;7.32;3.38;;;16.80;99.90;;;;;;5099074;28;20048;-57
2021/10/01 13:05:23;;;;;;;7.90;2.00;;;16.70;99.90;;;;;;5084279;28;20060;-58
2021/10/01 13:08:14;;;;;;;4.90;2.13;;;16.70;99.90;;;;;;5085148;28;20096;-57
2021/10/01 13:10:59;;;;;;;8.50;2.20;;;16.80;99.90;;;;;;5083350;28;20131;-57
2021/10/01 13:13:28;;;;;;;6.07;1.63;;;16.80;99.90;;;;;;5085049;28;20059;-57
2021/10/01 13:15:58;;;;;;;10.98;6.72;;;16.70;99.90;;;;;;5086655;28;20045;-53
2021/10/01 13:18:34;;;;;;;17.37;12.67;;;16.80;99.90;;;;;;5070878;28;20062;-56
2021/10/01 13:21:09;;;;;;;6.75;2.70;;;17.00;99.90;;;;;;5087808;28;20079;-53
2021/10/01 13:23:47;;;;;;;6.88;2.10;;;17.40;99.90;;;;;;5086545;28;20067;-54
2021/10/01 13:26:16;;;;;;;5.75;2.08;;;18.00;99.90;;;;;;5087025;28;20066;-56
2021/10/01 13:28:45;;;;;;;4.20;1.45;;;18.20;99.90;;;;;;5086813;28;20059;-53
2021/10/01 13:31:12;;;;;;;9.05;4.07;;;18.60;99.90;;;;;;5086920;28;20052;-57
2021/10/01 13:33:40;;;;;;;2.78;1.02;;;18.90;99.90;;;;;;5086798;28;20791;-56
2021/10/01 13:36:06;;;;;;;8.85;3.17;;;19.40;99.90;;;;;;5086489;28;20081;-55
2021/10/01 13:38:43;;;;;;;8.40;2.55;;;19.70;99.90;;;;;;5087246;28;20055;-56
2021/10/01 13:41:11;;;;;;;6.55;2.15;;;19.30;99.90;;;;;;5085133;28;20094;-56
2021/10/01 13:43:38;;;;;;;5.70;2.22;;;19.10;99.90;;;;;;5083383;28;20076;-53
2021/10/01 13:46:06;;;;;;;5.95;1.90;;;19.00;99.90;;;;;;5089604;28;20079;-57
2021/10/01 13:48:32;;;;;;;5.38;1.30;;;18.80;99.90;;;;;;5091732;28;20055;-55
2021/10/01 13:50:58;;;;;;;6.28;2.95;;;18.60;99.90;;;;;;5091479;28;20125;-58
2021/10/01 13:53:25;;;;;;;5.47;1.50;;;18.30;99.90;;;;;;5090147;28;20102;-55
2021/10/01 13:56:01;;;;;;;5.43;1.60;;;18.00;99.90;;;;;;5090484;28;20101;-55
2021/10/01 13:58:27;;;;;;;5.88;1.52;;;17.80;99.90;;;;;;5073317;28;20063;-55
2021/10/01 14:00:55;;;;;;;7.72;3.95;;;17.70;99.90;;;;;;5089460;28;20060;-57
2021/10/01 14:03:22;;;;;;;19.45;13.02;;;17.50;99.90;;;;;;5087750;28;20052;-55
2021/10/01 14:05:49;;;;;;;8.77;3.47;;;17.30;99.90;;;;;;5091851;28;20059;-54
2021/10/01 14:08:16;;;;;;;6.97;1.83;;;17.30;99.90;;;;;;5086730;28;20079;-57
2021/10/01 14:10:44;;;;;;;7.75;3.22;;;17.30;99.90;;;;;;5087104;28;20451;-55
2021/10/01 14:13:13;;;;;;;6.55;2.45;;;17.20;99.90;;;;;;5091396;28;20058;-56
2021/10/01 14:15:41;;;;;;;7.18;2.42;;;17.10;99.90;;;;;;5091408;28;20055;-55
2021/10/01 14:18:08;;;;;;;6.22;1.95;;;17.00;99.90;;;;;;5091277;28;20052;-56
2021/10/01 14:20:38;;;;;;;8.52;3.40;;;17.00;99.90;;;;;;5087589;28;20051;-55
2021/10/01 14:23:04;;;;;;;8.57;1.40;;;16.90;99.90;;;;;;5090987;28;20071;-54
2021/10/01 14:25:30;;;;;;;4.80;2.70;;;16.90;99.90;;;;;;5091756;28;20403;-53
2021/10/01 14:27:57;;;;;;;11.43;6.10;;;16.90;99.90;;;;;;5091242;28;20043;-53
2021/10/01 14:30:28;;;;;;;7.18;1.85;;;16.90;99.90;;;;;;5085022;28;20048;-55
2021/10/01 14:32:59;;;;;;;6.55;1.77;;;16.90;99.90;;;;;;5070257;28;20049;-53
2021/10/01 14:35:26;;;;;;;6.38;1.75;;;16.90;99.90;;;;;;5081284;28;20049;-56
2021/10/01 14:37:56;;;;;;;12.85;7.25;;;16.90;99.90;;;;;;5078233;28;20778;-53
2021/10/01 14:40:22;;;;;;;11.35;8.35;;;16.90;99.90;;;;;;5091094;28;20055;-49
2021/10/01 14:42:54;;;;;;;10.15;5.03;;;16.90;99.90;;;;;;5087263;28;20499;-53
2021/10/01 14:45:22;;;;;;;;;;;16.80;99.90;;;;;;5086017;28;20076;-55
2021/10/01 14:47:50;;;;;;;6.18;1.52;;;16.90;99.90;;;;;;5070527;28;20001;-56
2021/10/01 14:50:18;;;;;;;8.68;2.88;;;16.90;99.90;;;;;;5088969;28;20101;-54